NCAR-RAP Real-Time Weather Data

Output produced by METARs form (23 January 2018  15:34 UTC)
found at http://weather.rap.ucar.edu/surface/
 
RJTF 230700Z VRB02KT 9999 FEW030 06/01 Q1002
RJTF 230600Z 22008KT 190V260 9999 SCT030 09/M01 Q1002
RJTF 230500Z 23011KT 200V260 9999 FEW030 09/M00 Q1001
RJTF 230400Z VRB01KT 9999 FEW030 08/02 Q1001
RJTF 230300Z 36006KT 8000 FEW030 05/01 Q1002
RJTF 230200Z VRB02KT 9999 FEW030 06/02 Q1003
RJTF 230100Z 17006KT 9999 FEW030 05/02 Q1004
RJTF 230000Z VRB02KT 6000 FEW030 01/00 Q1005
RJTF 222330Z 15001KT 0800 FG FEW030 M02/M02 Q1006
RJTF 222310Z 36001KT 0300 FG FEW030 M01/M01 Q1006 RMK 1CU030 A2973
RJTF 220700Z 35010KT 0400 SN VV004 M00/M01 Q1014
RJTF 220600Z 35009KT 0400 SN VV004 M00/M01 Q1015
RJTF 220500Z 36007KT 320V020 0400 SN FEW002 BKN004 00/M01 Q1016
RJTF 220400Z 35009KT 0400 SHSN FEW002 BKN004 00/M00 Q1017
RJTF 220325Z 34007KT 300V360 0700 SHGSSN FEW003 BKN006 BKN015 00/M00 Q1017 RMK 2ST003 6ST006 7CU015 A3006 SNOW PELLETS
RJTF 220300Z 34007KT 1000 -SHGS FEW003 BKN006 BKN015 00/M01 Q1018
RJTF 220226Z 34006KT 310V010 1000 -SN FEW003 BKN006 BKN015 00/M00 Q1019 RMK 1ST003 5ST006 7SC015 A3010
RJTF 220212Z 34006KT 1000 -SN SCT005 BKN010 00/M01 Q1019 RMK 3ST005 7ST010 A3011
RJTF 220200Z 34006KT 1500 -SN FEW005 BKN010 BKN020 01/M00 Q1019
RJTF 220112Z 34006KT 310V010 3000 -SN BR FEW015 BKN020 01/M01 Q1021 RMK 2CU015 7SC020 A3016
RJTF 220100Z 35006KT 3500 -SN FEW015 BKN020 01/M02 Q1021
RJTF 220000Z 35007KT 9999 -SN SCT020 BKN030 03/M05 Q1021
RJTF 212330Z 36006KT 9999 FEW020 BKN030 03/M06 Q1021
RJTF 210700Z 16008KT 9999 FEW030 11/M02 Q1013
RJTF 210600Z VRB01KT 9999 FEW030 12/M05 Q1013
RJTF 210500Z VRB02KT 9999 FEW030 12/M04 Q1014
RJTF 210400Z 06003KT 350V170 9999 FEW030 SCT/// 12/M04 Q1013